Tilton, South Dakota
Current Conditions -  °F | °C
As of 7:55 PM on Saturday 25 Oct 2014 (Local Time) from KSPF Reporting Station
Clear Clear  
Wind Chill: 55°   Ceiling: Unl
Heat Index: 55°   Visibility: 10mi
Dew Point: 36°   Wind: 0mph
Humidity: 47%   Direction: NA
Pressure: 29.89"   Gusts: NA
Location:  44.253°N, 103.912°W
Report Text: KSPF 260155Z AUTO 00000KT 10SM CLR 13/02 A2989 RMK AO2
Loading
Personal Weather Stations






























Interactive Weather Map New forecast layout! Learn more

10-Day Weather Forecast

Advertisements
Track Severe Weather on mobile